Lancaster, OH (43130)

11:42 AM EDT en Agosto 22, 2014 (GMT -0400)
APRSWXNET Lancaster OH US | Change Station
CLOSE
Current Station
Estación meteorológica personal
Location: Lancaster, OH
Altura: 813 ft
Estaciones meteorológicas cercanas

Alt 813 ft 39.72 °N, 82.61 °W | Updated 38 minutes ago

Scattered Clouds
Nubes dispersas
74 ° F
Sensación térmica 73 ° F
N
0
Viento Variable Viento desde OSO
Gusts 2.0 mph

Hoy
Alta -- | Baja -- ° F
--% Posibilidad de precipitaciones
Ayer
Alta -- | Baja -- ° F
Precip. -- pul
6:49 AM 8:16 PM
Creciente menguante, 8% visible
Presión 30.01 pul
Visibilidad 10.0 Millas
Nubes Nubes dispersas 1600 ft
Índice de calor 73 ° F
Punto de rocío 70 ° F
Humedad 88%
Precipitaciones 0.72 pul
Espesor de la nieve No disponible.
UV 5 de una escala de 12
Polen 6.50 de una escala de 12
Ozono Buena
PM2.5 Buena
Flu Activity No disponible.
METAR KLHQ 221453Z AUTO 19003KT 10SM SCT016 24/21 A3003 RMK AO2 SLP162 T02390206 50001

More Conditions Fewer Conditions

Presión 30.01 pul
Visibilidad 10.0 Millas
Nubes Nubes dispersas 1600 ft
Índice de calor 73 ° F
Punto de rocío 70 ° F
Humedad 88%
Precipitaciones 0.72 pul
Espesor de la nieve No disponible.
UV 5 de una escala de 12
Polen 6.50 de una escala de 12
Ozono Buena
PM2.5 Buena
Flu Activity No disponible.
METAR KLHQ 221453Z AUTO 19003KT 10SM SCT016 24/21 A3003 RMK AO2 SLP162 T02390206 50001

More Conditions Fewer Conditions

10-Day Weather Forecast

Almanac

Astronomía

Aug. 22, 2014 Salida Puesta
Hora real 6:49 AM EDT 8:16 PM EDT
Crepúsculo civil 6:20 AM EDT 8:44 PM EDT
Crepúsculo náutico 5:46 AM EDT 9:18 PM EDT
Crepúsculo astronómico 5:10 AM EDT 9:54 PM EDT
Luna 4:10 AM EDT 6:24 PM EDT
Horas de luz 14h 24m
Horas de luz
13h 27m
Tomorrow will be 2m 24s shorter.
Creciente menguante, 8% of the Moon is Illuminated
Hoy
Creciente menguante
Ago 25
Nueva
Sep 2
Cuarto creciente
Sep 8
Luna llena
Sep 15
Cuarto menguante

Extremos de hoy

Máximos del estado Bajos del estado

Community

WunderPhotos

Upload Photos

1,746,188 ¡fotos cargadas!

Nearby

Calidad del aire

  Calidad del aire Índice AQ Contaminante
Ayer Buena
PM2.5
Ayer Buena
OZONE
Real Buena
PM2.5
Real Buena
OZONE
Viernes Moderada
PM2.5
Viernes Buena
OZONE
Sábado Moderada
OZONE
Sábado Moderada
PM2.5
Domingo Moderada
OZONE
Domingo Moderada
PM2.5
Lunes Moderada
OZONE
Lunes Moderada
PM2.5
Martes Moderada
OZONE
Martes Moderada
PM2.5

Grosos de nieve

Estación Profundido Altura
No tenemos constancia de nieve nueva.

Actividad de terremotos

Ciudad Distance Mag. Tiempo y dato
No hay informes recientes de la actividad sísmica.
Magnitud mínima muestra es 2,5.

Temperaturas de aguas costeras

Lugar Temperatura
Sin partes meteorológicos de las estaciones

Estaciones meteorológicas cercanas